sensor_id;sensor_type;location;lat;lon;timestamp;temperature;humidity
22974;DHT22;11653;50.848;4.584;2022-12-11T00:00:57;3.50;99.90
22974;DHT22;11653;50.848;4.584;2022-12-11T00:03:22;3.60;99.90
22974;DHT22;11653;50.848;4.584;2022-12-11T00:05:48;3.50;99.90
22974;DHT22;11653;50.848;4.584;2022-12-11T00:08:14;3.40;99.90
22974;DHT22;11653;50.848;4.584;2022-12-11T00:10:46;3.40;99.90
22974;DHT22;11653;50.848;4.584;2022-12-11T00:13:12;3.40;99.90
22974;DHT22;11653;50.848;4.584;2022-12-11T00:15:38;3.40;99.90
22974;DHT22;11653;50.848;4.584;2022-12-11T00:18:04;3.50;99.90
22974;DHT22;11653;50.848;4.584;2022-12-11T00:20:29;3.50;99.90
22974;DHT22;11653;50.848;4.584;2022-12-11T00:22:55;3.60;99.90
22974;DHT22;11653;50.848;4.584;2022-12-11T00:25:20;3.60;99.90
22974;DHT22;11653;50.848;4.584;2022-12-11T00:27:46;3.60;99.90
22974;DHT22;11653;50.848;4.584;2022-12-11T00:30:13;3.70;99.90
22974;DHT22;11653;50.848;4.584;2022-12-11T00:32:38;3.70;99.90
22974;DHT22;11653;50.848;4.584;2022-12-11T00:35:04;3.80;99.90
22974;DHT22;11653;50.848;4.584;2022-12-11T00:37:30;3.80;99.90
22974;DHT22;11653;50.848;4.584;2022-12-11T00:39:55;3.70;99.90
22974;DHT22;11653;50.848;4.584;2022-12-11T00:42:21;3.70;99.90
22974;DHT22;11653;50.848;4.584;2022-12-11T00:44:47;3.60;99.90
22974;DHT22;11653;50.848;4.584;2022-12-11T00:47:12;3.70;99.90
22974;DHT22;11653;50.848;4.584;2022-12-11T00:49:38;3.60;99.90
22974;DHT22;11653;50.848;4.584;2022-12-11T00:52:03;3.70;99.90
22974;DHT22;11653;50.848;4.584;2022-12-11T00:54:29;3.80;99.90
22974;DHT22;11653;50.848;4.584;2022-12-11T00:56:55;3.80;99.90
22974;DHT22;11653;50.848;4.584;2022-12-11T00:59:21;3.90;99.90
22974;DHT22;11653;50.848;4.584;2022-12-11T01:01:46;3.80;99.90
22974;DHT22;11653;50.848;4.584;2022-12-11T01:04:12;3.90;99.90
22974;DHT22;11653;50.848;4.584;2022-12-11T01:06:38;3.90;99.90
22974;DHT22;11653;50.848;4.584;2022-12-11T01:09:04;3.90;99.90
22974;DHT22;11653;50.848;4.584;2022-12-11T01:11:48;3.80;99.90
22974;DHT22;11653;50.848;4.584;2022-12-11T01:14:14;3.80;99.90
22974;DHT22;11653;50.848;4.584;2022-12-11T01:16:39;3.70;99.90
22974;DHT22;11653;50.848;4.584;2022-12-11T01:19:05;3.80;99.90
22974;DHT22;11653;50.848;4.584;2022-12-11T01:21:31;3.80;99.90
22974;DHT22;11653;50.848;4.584;2022-12-11T01:23:56;3.90;99.90
22974;DHT22;11653;50.848;4.584;2022-12-11T01:26:22;3.90;99.90
22974;DHT22;11653;50.848;4.584;2022-12-11T01:28:49;3.90;99.90
22974;DHT22;11653;50.848;4.584;2022-12-11T01:31:17;3.90;99.90
22974;DHT22;11653;50.848;4.584;2022-12-11T01:33:43;3.90;99.90
22974;DHT22;11653;50.848;4.584;2022-12-11T01:36:18;4.00;99.90
22974;DHT22;11653;50.848;4.584;2022-12-11T01:38:45;4.00;99.90
22974;DHT22;11653;50.848;4.584;2022-12-11T01:41:11;4.00;99.90
22974;DHT22;11653;50.848;4.584;2022-12-11T01:46:21;4.10;99.90
22974;DHT22;11653;50.848;4.584;2022-12-11T01:48:46;4.00;99.90
22974;DHT22;11653;50.848;4.584;2022-12-11T01:51:13;4.00;99.90
22974;DHT22;11653;50.848;4.584;2022-12-11T01:53:46;4.00;99.90
22974;DHT22;11653;50.848;4.584;2022-12-11T01:56:13;4.10;99.90
22974;DHT22;11653;50.848;4.584;2022-12-11T01:58:41;4.10;99.90
22974;DHT22;11653;50.848;4.584;2022-12-11T02:01:13;4.10;99.90
22974;DHT22;11653;50.848;4.584;2022-12-11T02:03:39;4.20;99.90
22974;DHT22;11653;50.848;4.584;2022-12-11T02:06:04;4.20;99.90
22974;DHT22;11653;50.848;4.584;2022-12-11T02:08:30;4.20;99.90
22974;DHT22;11653;50.848;4.584;2022-12-11T02:11:12;4.20;99.90
22974;DHT22;11653;50.848;4.584;2022-12-11T02:14:16;4.20;99.90
22974;DHT22;11653;50.848;4.584;2022-12-11T02:17:03;4.20;99.90
22974;DHT22;11653;50.848;4.584;2022-12-11T02:22:06;4.30;99.90
22974;DHT22;11653;50.848;4.584;2022-12-11T02:30:10;4.10;99.90
22974;DHT22;11653;50.848;4.584;2022-12-11T02:35:37;4.10;99.90
22974;DHT22;11653;50.848;4.584;2022-12-11T02:38:11;4.10;99.90
22974;DHT22;11653;50.848;4.584;2022-12-11T02:40:40;4.10;99.90
22974;DHT22;11653;50.848;4.584;2022-12-11T02:43:10;4.10;99.90
22974;DHT22;11653;50.848;4.584;2022-12-11T02:45:38;4.10;99.90
22974;DHT22;11653;50.848;4.584;2022-12-11T02:48:06;4.10;99.90
22974;DHT22;11653;50.848;4.584;2022-12-11T02:50:35;4.20;99.90
22974;DHT22;11653;50.848;4.584;2022-12-11T02:53:03;4.20;99.90
22974;DHT22;11653;50.848;4.584;2022-12-11T02:55:31;4.10;99.90
22974;DHT22;11653;50.848;4.584;2022-12-11T02:58:29;4.10;99.90
22974;DHT22;11653;50.848;4.584;2022-12-11T03:00:55;4.20;99.90
22974;DHT22;11653;50.848;4.584;2022-12-11T03:03:22;4.20;99.90
22974;DHT22;11653;50.848;4.584;2022-12-11T03:05:47;4.20;99.90
22974;DHT22;11653;50.848;4.584;2022-12-11T03:08:13;4.20;99.90
22974;DHT22;11653;50.848;4.584;2022-12-11T03:10:44;4.10;99.90
22974;DHT22;11653;50.848;4.584;2022-12-11T03:13:12;4.20;99.90
22974;DHT22;11653;50.848;4.584;2022-12-11T03:19:32;4.20;99.90
22974;DHT22;11653;50.848;4.584;2022-12-11T03:21:53;4.20;99.90
22974;DHT22;11653;50.848;4.584;2022-12-11T03:27:16;4.20;99.90
22974;DHT22;11653;50.848;4.584;2022-12-11T03:29:55;4.20;99.90
22974;DHT22;11653;50.848;4.584;2022-12-11T03:32:28;4.10;99.90
22974;DHT22;11653;50.848;4.584;2022-12-11T03:35:15;4.20;99.90
22974;DHT22;11653;50.848;4.584;2022-12-11T03:37:43;4.20;99.90
22974;DHT22;11653;50.848;4.584;2022-12-11T03:40:14;4.20;99.90
22974;DHT22;11653;50.848;4.584;2022-12-11T03:42:42;4.10;99.90
22974;DHT22;11653;50.848;4.584;2022-12-11T03:45:10;4.10;99.90
22974;DHT22;11653;50.848;4.584;2022-12-11T03:47:37;4.10;99.90
22974;DHT22;11653;50.848;4.584;2022-12-11T03:50:04;4.00;99.90
22974;DHT22;11653;50.848;4.584;2022-12-11T03:52:32;4.00;99.90
22974;DHT22;11653;50.848;4.584;2022-12-11T03:55:00;3.90;99.90
22974;DHT22;11653;50.848;4.584;2022-12-11T03:57:30;3.80;99.90
22974;DHT22;11653;50.848;4.584;2022-12-11T03:59:57;3.80;99.90
22974;DHT22;11653;50.848;4.584;2022-12-11T04:02:23;3.70;99.90
22974;DHT22;11653;50.848;4.584;2022-12-11T04:04:49;3.60;99.90
22974;DHT22;11653;50.848;4.584;2022-12-11T04:07:14;3.60;99.90
22974;DHT22;11653;50.848;4.584;2022-12-11T04:09:40;3.70;99.90
22974;DHT22;11653;50.848;4.584;2022-12-11T04:12:05;3.50;99.90
22974;DHT22;11653;50.848;4.584;2022-12-11T04:14:31;3.50;99.90
22974;DHT22;11653;50.848;4.584;2022-12-11T04:17:15;3.60;99.90
22974;DHT22;11653;50.848;4.584;2022-12-11T04:20:02;3.70;99.90
22974;DHT22;11653;50.848;4.584;2022-12-11T04:22:46;3.70;99.90
22974;DHT22;11653;50.848;4.584;2022-12-11T04:25:30;3.70;99.90
22974;DHT22;11653;50.848;4.584;2022-12-11T04:27:56;3.70;99.90
22974;DHT22;11653;50.848;4.584;2022-12-11T04:30:23;3.70;99.90
22974;DHT22;11653;50.848;4.584;2022-12-11T04:32:50;3.80;99.90
22974;DHT22;11653;50.848;4.584;2022-12-11T04:35:16;3.70;99.90
22974;DHT22;11653;50.848;4.584;2022-12-11T04:37:42;3.70;99.90
22974;DHT22;11653;50.848;4.584;2022-12-11T04:40:10;3.70;99.90
22974;DHT22;11653;50.848;4.584;2022-12-11T04:42:37;3.70;99.90
22974;DHT22;11653;50.848;4.584;2022-12-11T04:45:03;3.70;99.90
22974;DHT22;11653;50.848;4.584;2022-12-11T04:47:29;3.60;99.90
22974;DHT22;11653;50.848;4.584;2022-12-11T04:49:55;3.70;99.90
22974;DHT22;11653;50.848;4.584;2022-12-11T04:52:21;3.60;99.90
22974;DHT22;11653;50.848;4.584;2022-12-11T04:54:47;3.70;99.90
22974;DHT22;11653;50.848;4.584;2022-12-11T04:57:13;3.80;99.90
22974;DHT22;11653;50.848;4.584;2022-12-11T04:59:39;3.80;99.90
22974;DHT22;11653;50.848;4.584;2022-12-11T05:02:04;3.90;99.90
22974;DHT22;11653;50.848;4.584;2022-12-11T05:04:32;3.90;99.90
22974;DHT22;11653;50.848;4.584;2022-12-11T05:06:58;3.80;99.90
22974;DHT22;11653;50.848;4.584;2022-12-11T05:09:23;3.80;99.90
22974;DHT22;11653;50.848;4.584;2022-12-11T05:11:50;3.70;99.90
22974;DHT22;11653;50.848;4.584;2022-12-11T05:14:16;3.70;99.90
22974;DHT22;11653;50.848;4.584;2022-12-11T05:16:42;3.50;99.90
22974;DHT22;11653;50.848;4.584;2022-12-11T05:19:08;3.60;99.90
22974;DHT22;11653;50.848;4.584;2022-12-11T05:21:33;3.60;99.90
22974;DHT22;11653;50.848;4.584;2022-12-11T05:23:59;3.70;99.90
22974;DHT22;11653;50.848;4.584;2022-12-11T05:26:25;3.70;99.90
22974;DHT22;11653;50.848;4.584;2022-12-11T05:28:51;3.80;99.90
22974;DHT22;11653;50.848;4.584;2022-12-11T05:31:21;3.80;99.90
22974;DHT22;11653;50.848;4.584;2022-12-11T05:33:48;3.80;99.90
22974;DHT22;11653;50.848;4.584;2022-12-11T05:36:23;3.90;99.90
22974;DHT22;11653;50.848;4.584;2022-12-11T05:38:50;3.90;99.90
22974;DHT22;11653;50.848;4.584;2022-12-11T05:41:19;4.00;99.90
22974;DHT22;11653;50.848;4.584;2022-12-11T05:43:46;4.10;99.90
22974;DHT22;11653;50.848;4.584;2022-12-11T05:46:17;4.00;99.90
22974;DHT22;11653;50.848;4.584;2022-12-11T05:48:45;4.00;99.90
22974;DHT22;11653;50.848;4.584;2022-12-11T05:51:12;4.00;99.90
22974;DHT22;11653;50.848;4.584;2022-12-11T05:53:39;4.00;99.90
22974;DHT22;11653;50.848;4.584;2022-12-11T05:56:14;4.00;99.90
22974;DHT22;11653;50.848;4.584;2022-12-11T05:58:41;4.00;99.90
22974;DHT22;11653;50.848;4.584;2022-12-11T06:01:09;4.00;99.90
22974;DHT22;11653;50.848;4.584;2022-12-11T06:03:35;4.00;99.90
22974;DHT22;11653;50.848;4.584;2022-12-11T06:06:02;4.00;99.90
22974;DHT22;11653;50.848;4.584;2022-12-11T06:08:28;4.00;99.90
22974;DHT22;11653;50.848;4.584;2022-12-11T06:10:54;3.90;99.90
22974;DHT22;11653;50.848;4.584;2022-12-11T06:13:20;3.90;99.90
22974;DHT22;11653;50.848;4.584;2022-12-11T06:15:45;3.90;99.90
22974;DHT22;11653;50.848;4.584;2022-12-11T06:18:11;3.90;99.90
22974;DHT22;11653;50.848;4.584;2022-12-11T06:20:37;3.90;99.90
22974;DHT22;11653;50.848;4.584;2022-12-11T06:23:03;3.80;99.90
22974;DHT22;11653;50.848;4.584;2022-12-11T06:25:29;3.80;99.90
22974;DHT22;11653;50.848;4.584;2022-12-11T06:27:55;3.80;99.90
22974;DHT22;11653;50.848;4.584;2022-12-11T06:30:21;3.70;99.90
22974;DHT22;11653;50.848;4.584;2022-12-11T06:32:47;3.70;99.90
22974;DHT22;11653;50.848;4.584;2022-12-11T06:35:13;3.80;99.90
22974;DHT22;11653;50.848;4.584;2022-12-11T06:37:39;3.80;99.90
22974;DHT22;11653;50.848;4.584;2022-12-11T06:40:07;3.90;99.90
22974;DHT22;11653;50.848;4.584;2022-12-11T06:42:33;3.90;99.90
22974;DHT22;11653;50.848;4.584;2022-12-11T06:44:59;3.90;99.90
22974;DHT22;11653;50.848;4.584;2022-12-11T06:47:26;3.80;99.90
22974;DHT22;11653;50.848;4.584;2022-12-11T06:49:52;3.80;99.90
22974;DHT22;11653;50.848;4.584;2022-12-11T06:52:18;3.80;99.90
22974;DHT22;11653;50.848;4.584;2022-12-11T06:54:44;3.80;99.90
22974;DHT22;11653;50.848;4.584;2022-12-11T06:57:10;3.80;99.90
22974;DHT22;11653;50.848;4.584;2022-12-11T06:59:35;3.90;99.90
22974;DHT22;11653;50.848;4.584;2022-12-11T07:02:02;3.80;99.90
22974;DHT22;11653;50.848;4.584;2022-12-11T07:04:29;3.80;99.90
22974;DHT22;11653;50.848;4.584;2022-12-11T07:06:55;3.60;99.90
22974;DHT22;11653;50.848;4.584;2022-12-11T07:09:22;3.50;99.90
22974;DHT22;11653;50.848;4.584;2022-12-11T07:11:51;3.60;99.90
22974;DHT22;11653;50.848;4.584;2022-12-11T07:14:17;3.60;99.90
22974;DHT22;11653;50.848;4.584;2022-12-11T07:16:43;3.70;99.90
22974;DHT22;11653;50.848;4.584;2022-12-11T07:19:10;3.60;99.90
22974;DHT22;11653;50.848;4.584;2022-12-11T07:21:36;3.60;99.90
22974;DHT22;11653;50.848;4.584;2022-12-11T07:24:02;3.60;99.90
22974;DHT22;11653;50.848;4.584;2022-12-11T07:26:28;3.50;99.90
22974;DHT22;11653;50.848;4.584;2022-12-11T07:28:57;3.60;99.90
22974;DHT22;11653;50.848;4.584;2022-12-11T07:31:24;3.70;99.90
22974;DHT22;11653;50.848;4.584;2022-12-11T07:33:54;3.70;99.90
22974;DHT22;11653;50.848;4.584;2022-12-11T07:36:22;3.70;99.90
22974;DHT22;11653;50.848;4.584;2022-12-11T07:38:48;3.60;99.90
22974;DHT22;11653;50.848;4.584;2022-12-11T07:41:14;3.60;99.90
22974;DHT22;11653;50.848;4.584;2022-12-11T07:43:40;3.60;99.90
22974;DHT22;11653;50.848;4.584;2022-12-11T07:46:12;3.60;99.90
22974;DHT22;11653;50.848;4.584;2022-12-11T07:48:39;3.50;99.90
22974;DHT22;11653;50.848;4.584;2022-12-11T07:51:16;3.40;99.90
22974;DHT22;11653;50.848;4.584;2022-12-11T07:53:43;3.30;99.90
22974;DHT22;11653;50.848;4.584;2022-12-11T07:56:10;3.50;99.90
22974;DHT22;11653;50.848;4.584;2022-12-11T07:58:36;3.50;99.90
22974;DHT22;11653;50.848;4.584;2022-12-11T08:01:04;3.50;99.90
22974;DHT22;11653;50.848;4.584;2022-12-11T08:03:30;3.70;99.90
22974;DHT22;11653;50.848;4.584;2022-12-11T08:05:56;3.80;99.90
22974;DHT22;11653;50.848;4.584;2022-12-11T08:08:21;3.90;99.90
22974;DHT22;11653;50.848;4.584;2022-12-11T08:10:47;3.80;99.90
22974;DHT22;11653;50.848;4.584;2022-12-11T08:13:13;3.80;99.90
22974;DHT22;11653;50.848;4.584;2022-12-11T08:15:39;3.80;99.90
22974;DHT22;11653;50.848;4.584;2022-12-11T08:18:05;3.60;99.90
22974;DHT22;11653;50.848;4.584;2022-12-11T08:20:31;3.60;99.90
22974;DHT22;11653;50.848;4.584;2022-12-11T08:22:57;3.50;99.90
22974;DHT22;11653;50.848;4.584;2022-12-11T08:25:22;3.50;99.90
22974;DHT22;11653;50.848;4.584;2022-12-11T08:27:48;3.50;99.90
22974;DHT22;11653;50.848;4.584;2022-12-11T08:30:16;3.60;99.90
22974;DHT22;11653;50.848;4.584;2022-12-11T08:32:48;3.70;99.90
22974;DHT22;11653;50.848;4.584;2022-12-11T08:35:14;3.80;99.90
22974;DHT22;11653;50.848;4.584;2022-12-11T08:37:39;3.80;99.90
22974;DHT22;11653;50.848;4.584;2022-12-11T08:40:06;3.90;99.90
22974;DHT22;11653;50.848;4.584;2022-12-11T08:42:32;3.80;99.90
22974;DHT22;11653;50.848;4.584;2022-12-11T08:44:57;3.90;99.90
22974;DHT22;11653;50.848;4.584;2022-12-11T08:47:24;3.90;99.90
22974;DHT22;11653;50.848;4.584;2022-12-11T08:49:50;3.90;99.90
22974;DHT22;11653;50.848;4.584;2022-12-11T08:52:15;3.90;99.90
22974;DHT22;11653;50.848;4.584;2022-12-11T08:54:41;3.80;99.90
22974;DHT22;11653;50.848;4.584;2022-12-11T08:57:07;3.80;99.90
22974;DHT22;11653;50.848;4.584;2022-12-11T08:59:34;3.80;99.90
22974;DHT22;11653;50.848;4.584;2022-12-11T09:02:00;3.80;99.90
22974;DHT22;11653;50.848;4.584;2022-12-11T09:04:26;3.90;99.90
22974;DHT22;11653;50.848;4.584;2022-12-11T09:06:51;4.00;99.90
22974;DHT22;11653;50.848;4.584;2022-12-11T09:09:17;3.90;99.90
22974;DHT22;11653;50.848;4.584;2022-12-11T09:11:43;3.70;99.90
22974;DHT22;11653;50.848;4.584;2022-12-11T09:14:09;3.80;99.90
22974;DHT22;11653;50.848;4.584;2022-12-11T09:16:38;3.80;99.90
22974;DHT22;11653;50.848;4.584;2022-12-11T09:19:06;3.90;99.90
22974;DHT22;11653;50.848;4.584;2022-12-11T09:21:32;3.90;99.90
22974;DHT22;11653;50.848;4.584;2022-12-11T09:23:59;4.00;99.90
22974;DHT22;11653;50.848;4.584;2022-12-11T09:26:26;4.10;99.90
22974;DHT22;11653;50.848;4.584;2022-12-11T09:28:53;4.00;99.90
22974;DHT22;11653;50.848;4.584;2022-12-11T09:31:31;3.90;99.90
22974;DHT22;11653;50.848;4.584;2022-12-11T09:33:59;4.00;99.90
22974;DHT22;11653;50.848;4.584;2022-12-11T09:36:26;4.00;99.90
22974;DHT22;11653;50.848;4.584;2022-12-11T09:38:52;4.00;99.90
22974;DHT22;11653;50.848;4.584;2022-12-11T09:44:06;4.00;99.90
22974;DHT22;11653;50.848;4.584;2022-12-11T09:46:34;3.90;99.90
22974;DHT22;11653;50.848;4.584;2022-12-11T09:49:02;3.90;99.90
22974;DHT22;11653;50.848;4.584;2022-12-11T09:51:42;3.80;99.90
22974;DHT22;11653;50.848;4.584;2022-12-11T09:54:12;3.80;99.90
22974;DHT22;11653;50.848;4.584;2022-12-11T09:56:43;3.60;99.90
22974;DHT22;11653;50.848;4.584;2022-12-11T10:01:58;3.80;99.90
22974;DHT22;11653;50.848;4.584;2022-12-11T10:15:38;4.20;99.90
22974;DHT22;11653;50.848;4.584;2022-12-11T10:18:11;4.10;99.90
22974;DHT22;11653;50.848;4.584;2022-12-11T10:20:38;4.20;99.90
22974;DHT22;11653;50.848;4.584;2022-12-11T10:23:07;4.30;99.90
22974;DHT22;11653;50.848;4.584;2022-12-11T10:25:45;4.50;99.90
22974;DHT22;11653;50.848;4.584;2022-12-11T10:28:18;4.50;99.90
22974;DHT22;11653;50.848;4.584;2022-12-11T10:34:02;4.60;99.90
22974;DHT22;11653;50.848;4.584;2022-12-11T10:36:31;4.50;99.90
22974;DHT22;11653;50.848;4.584;2022-12-11T10:38:58;4.50;99.90
22974;DHT22;11653;50.848;4.584;2022-12-11T10:41:38;4.50;99.90
22974;DHT22;11653;50.848;4.584;2022-12-11T10:44:16;4.60;99.90
22974;DHT22;11653;50.848;4.584;2022-12-11T10:46:43;4.60;99.90
22974;DHT22;11653;50.848;4.584;2022-12-11T10:49:24;4.50;99.90
22974;DHT22;11653;50.848;4.584;2022-12-11T10:51:52;4.40;99.90
22974;DHT22;11653;50.848;4.584;2022-12-11T10:54:37;4.40;99.90
22974;DHT22;11653;50.848;4.584;2022-12-11T10:57:06;4.40;99.90
22974;DHT22;11653;50.848;4.584;2022-12-11T11:02:01;4.20;99.90
22974;DHT22;11653;50.848;4.584;2022-12-11T11:04:36;4.20;99.90
22974;DHT22;11653;50.848;4.584;2022-12-11T11:07:14;4.30;99.90
22974;DHT22;11653;50.848;4.584;2022-12-11T11:09:40;4.40;99.90
22974;DHT22;11653;50.848;4.584;2022-12-11T11:12:24;4.40;99.90
22974;DHT22;11653;50.848;4.584;2022-12-11T11:15:03;4.40;99.90
22974;DHT22;11653;50.848;4.584;2022-12-11T11:17:30;4.40;99.90
22974;DHT22;11653;50.848;4.584;2022-12-11T11:20:03;4.50;99.90
22974;DHT22;11653;50.848;4.584;2022-12-11T11:22:31;4.50;99.90
22974;DHT22;11653;50.848;4.584;2022-12-11T11:24:58;4.70;99.90
22974;DHT22;11653;50.848;4.584;2022-12-11T11:27:42;4.90;99.90
22974;DHT22;11653;50.848;4.584;2022-12-11T11:30:38;4.90;99.90
22974;DHT22;11653;50.848;4.584;2022-12-11T11:33:19;5.00;99.90
22974;DHT22;11653;50.848;4.584;2022-12-11T11:35:58;5.20;99.90
22974;DHT22;11653;50.848;4.584;2022-12-11T11:38:28;6.00;99.90
22974;DHT22;11653;50.848;4.584;2022-12-11T11:46:28;9.00;99.90
22974;DHT22;11653;50.848;4.584;2022-12-11T11:49:24;9.30;99.90
22974;DHT22;11653;50.848;4.584;2022-12-11T11:52:14;9.60;99.90
22974;DHT22;11653;50.848;4.584;2022-12-11T11:55:07;9.90;99.90
22974;DHT22;11653;50.848;4.584;2022-12-11T11:57:53;10.30;99.90
22974;DHT22;11653;50.848;4.584;2022-12-11T12:00:23;10.20;99.90
22974;DHT22;11653;50.848;4.584;2022-12-11T12:02:53;10.60;99.90
22974;DHT22;11653;50.848;4.584;2022-12-11T12:05:34;11.00;98.60
22974;DHT22;11653;50.848;4.584;2022-12-11T12:08:38;11.50;97.40
22974;DHT22;11653;50.848;4.584;2022-12-11T12:21:51;8.50;99.70
22974;DHT22;11653;50.848;4.584;2022-12-11T12:24:42;8.20;99.90
22974;DHT22;11653;50.848;4.584;2022-12-11T12:27:17;7.70;99.90
22974;DHT22;11653;50.848;4.584;2022-12-11T12:30:07;7.50;99.90
22974;DHT22;11653;50.848;4.584;2022-12-11T12:33:14;7.30;99.90
22974;DHT22;11653;50.848;4.584;2022-12-11T12:35:35;7.10;99.90
22974;DHT22;11653;50.848;4.584;2022-12-11T12:38:06;7.00;99.90
22974;DHT22;11653;50.848;4.584;2022-12-11T12:46:33;6.50;99.90
22974;DHT22;11653;50.848;4.584;2022-12-11T12:49:03;6.40;99.90
22974;DHT22;11653;50.848;4.584;2022-12-11T12:51:32;6.30;99.90
22974;DHT22;11653;50.848;4.584;2022-12-11T12:54:00;6.00;99.90
22974;DHT22;11653;50.848;4.584;2022-12-11T12:56:30;5.70;99.90
22974;DHT22;11653;50.848;4.584;2022-12-11T12:58:56;5.20;99.90
22974;DHT22;11653;50.848;4.584;2022-12-11T13:01:24;5.10;99.90
22974;DHT22;11653;50.848;4.584;2022-12-11T13:03:57;5.00;99.90
22974;DHT22;11653;50.848;4.584;2022-12-11T13:06:36;5.00;99.90
22974;DHT22;11653;50.848;4.584;2022-12-11T13:09:28;5.00;99.90
22974;DHT22;11653;50.848;4.584;2022-12-11T13:11:55;5.00;99.90
22974;DHT22;11653;50.848;4.584;2022-12-11T13:14:29;5.00;99.90
22974;DHT22;11653;50.848;4.584;2022-12-11T13:19:48;4.80;99.90
22974;DHT22;11653;50.848;4.584;2022-12-11T13:27:38;4.70;99.90
22974;DHT22;11653;50.848;4.584;2022-12-11T13:32:30;4.70;99.90
22974;DHT22;11653;50.848;4.584;2022-12-11T13:34:58;4.70;99.90
22974;DHT22;11653;50.848;4.584;2022-12-11T13:40:31;4.90;99.90
22974;DHT22;11653;50.848;4.584;2022-12-11T13:43:00;4.80;99.90
22974;DHT22;11653;50.848;4.584;2022-12-11T13:45:47;4.70;99.90
22974;DHT22;11653;50.848;4.584;2022-12-11T13:48:28;4.60;99.90
22974;DHT22;11653;50.848;4.584;2022-12-11T13:50:58;4.60;99.90
22974;DHT22;11653;50.848;4.584;2022-12-11T13:53:24;4.70;99.90
22974;DHT22;11653;50.848;4.584;2022-12-11T13:56:05;4.70;99.90
22974;DHT22;11653;50.848;4.584;2022-12-11T13:58:37;4.80;99.90
22974;DHT22;11653;50.848;4.584;2022-12-11T14:01:16;4.90;99.90
22974;DHT22;11653;50.848;4.584;2022-12-11T14:04:06;5.00;99.90
22974;DHT22;11653;50.848;4.584;2022-12-11T14:06:33;5.00;99.90
22974;DHT22;11653;50.848;4.584;2022-12-11T14:09:02;5.00;99.90
22974;DHT22;11653;50.848;4.584;2022-12-11T14:11:34;5.00;99.90
22974;DHT22;11653;50.848;4.584;2022-12-11T14:14:02;5.00;99.90
22974;DHT22;11653;50.848;4.584;2022-12-11T14:16:29;5.00;99.90
22974;DHT22;11653;50.848;4.584;2022-12-11T14:19:04;5.00;99.90
22974;DHT22;11653;50.848;4.584;2022-12-11T14:21:30;5.00;99.90
22974;DHT22;11653;50.848;4.584;2022-12-11T14:23:59;5.10;99.90
22974;DHT22;11653;50.848;4.584;2022-12-11T14:26:33;5.10;99.90
22974;DHT22;11653;50.848;4.584;2022-12-11T14:28:59;5.10;99.90
22974;DHT22;11653;50.848;4.584;2022-12-11T14:31:35;5.00;99.90
22974;DHT22;11653;50.848;4.584;2022-12-11T14:34:11;5.00;99.90
22974;DHT22;11653;50.848;4.584;2022-12-11T14:36:40;5.00;99.90
22974;DHT22;11653;50.848;4.584;2022-12-11T14:41:55;5.00;99.90
22974;DHT22;11653;50.848;4.584;2022-12-11T14:44:24;5.10;99.90
22974;DHT22;11653;50.848;4.584;2022-12-11T14:46:55;5.10;99.90
22974;DHT22;11653;50.848;4.584;2022-12-11T14:49:37;5.10;99.90
22974;DHT22;11653;50.848;4.584;2022-12-11T14:52:05;5.10;99.90
22974;DHT22;11653;50.848;4.584;2022-12-11T14:54:42;5.20;99.90
22974;DHT22;11653;50.848;4.584;2022-12-11T14:57:22;5.10;99.90
22974;DHT22;11653;50.848;4.584;2022-12-11T14:59:50;5.10;99.90
22974;DHT22;11653;50.848;4.584;2022-12-11T15:02:43;5.10;99.90
22974;DHT22;11653;50.848;4.584;2022-12-11T15:05:17;5.20;99.90
22974;DHT22;11653;50.848;4.584;2022-12-11T15:07:57;5.20;99.90
22974;DHT22;11653;50.848;4.584;2022-12-11T15:10:24;5.20;99.90
22974;DHT22;11653;50.848;4.584;2022-12-11T15:12:51;5.20;99.90
22974;DHT22;11653;50.848;4.584;2022-12-11T15:15:17;5.20;99.90
22974;DHT22;11653;50.848;4.584;2022-12-11T15:17:44;5.20;99.90
22974;DHT22;11653;50.848;4.584;2022-12-11T15:20:23;5.10;99.90
22974;DHT22;11653;50.848;4.584;2022-12-11T15:22:50;5.10;99.90
22974;DHT22;11653;50.848;4.584;2022-12-11T15:25:22;5.10;99.90
22974;DHT22;11653;50.848;4.584;2022-12-11T15:27:57;5.10;99.90
22974;DHT22;11653;50.848;4.584;2022-12-11T15:30:26;5.10;99.90
22974;DHT22;11653;50.848;4.584;2022-12-11T15:35:38;5.10;99.90
22974;DHT22;11653;50.848;4.584;2022-12-11T15:38:04;5.10;99.90
22974;DHT22;11653;50.848;4.584;2022-12-11T15:40:30;5.00;99.90
22974;DHT22;11653;50.848;4.584;2022-12-11T15:42:57;5.00;99.90
22974;DHT22;11653;50.848;4.584;2022-12-11T15:45:26;5.00;99.90
22974;DHT22;11653;50.848;4.584;2022-12-11T15:47:55;4.90;99.90
22974;DHT22;11653;50.848;4.584;2022-12-11T15:50:27;4.90;99.90
22974;DHT22;11653;50.848;4.584;2022-12-11T15:52:54;4.90;99.90
22974;DHT22;11653;50.848;4.584;2022-12-11T15:55:21;4.90;99.90
22974;DHT22;11653;50.848;4.584;2022-12-11T15:57:56;4.80;99.90
22974;DHT22;11653;50.848;4.584;2022-12-11T16:00:22;4.90;99.90
22974;DHT22;11653;50.848;4.584;2022-12-11T16:02:53;4.90;99.90
22974;DHT22;11653;50.848;4.584;2022-12-11T16:05:19;4.80;99.90
22974;DHT22;11653;50.848;4.584;2022-12-11T16:07:46;4.80;99.90
22974;DHT22;11653;50.848;4.584;2022-12-11T16:10:17;4.80;99.90
22974;DHT22;11653;50.848;4.584;2022-12-11T16:12:43;4.80;99.90
22974;DHT22;11653;50.848;4.584;2022-12-11T16:15:10;4.80;99.90
22974;DHT22;11653;50.848;4.584;2022-12-11T16:17:37;4.80;99.90
22974;DHT22;11653;50.848;4.584;2022-12-11T16:20:03;4.80;99.90
22974;DHT22;11653;50.848;4.584;2022-12-11T16:22:29;4.70;99.90
22974;DHT22;11653;50.848;4.584;2022-12-11T16:24:55;4.70;99.90
22974;DHT22;11653;50.848;4.584;2022-12-11T16:27:21;4.60;99.90
22974;DHT22;11653;50.848;4.584;2022-12-11T16:29:47;4.60;99.90
22974;DHT22;11653;50.848;4.584;2022-12-11T16:32:13;4.60;99.90
22974;DHT22;11653;50.848;4.584;2022-12-11T16:34:39;4.60;99.90
22974;DHT22;11653;50.848;4.584;2022-12-11T16:37:06;4.50;99.90
22974;DHT22;11653;50.848;4.584;2022-12-11T16:39:32;4.50;99.90
22974;DHT22;11653;50.848;4.584;2022-12-11T16:41:58;4.40;99.90
22974;DHT22;11653;50.848;4.584;2022-12-11T16:44:24;4.40;99.90
22974;DHT22;11653;50.848;4.584;2022-12-11T16:46:51;4.40;99.90
22974;DHT22;11653;50.848;4.584;2022-12-11T16:49:18;4.50;99.90
22974;DHT22;11653;50.848;4.584;2022-12-11T16:51:44;4.50;99.90
22974;DHT22;11653;50.848;4.584;2022-12-11T16:54:10;4.40;99.90
22974;DHT22;11653;50.848;4.584;2022-12-11T16:56:36;4.50;99.90
22974;DHT22;11653;50.848;4.584;2022-12-11T16:59:03;4.40;99.90
22974;DHT22;11653;50.848;4.584;2022-12-11T17:01:30;4.50;99.90
22974;DHT22;11653;50.848;4.584;2022-12-11T17:03:56;4.40;99.90
22974;DHT22;11653;50.848;4.584;2022-12-11T17:06:22;4.40;99.90
22974;DHT22;11653;50.848;4.584;2022-12-11T17:08:48;4.30;99.90
22974;DHT22;11653;50.848;4.584;2022-12-11T17:11:20;4.40;99.90
22974;DHT22;11653;50.848;4.584;2022-12-11T17:13:46;4.50;99.90
22974;DHT22;11653;50.848;4.584;2022-12-11T17:16:16;4.40;99.90
22974;DHT22;11653;50.848;4.584;2022-12-11T17:18:42;4.50;99.90
22974;DHT22;11653;50.848;4.584;2022-12-11T17:21:12;4.50;99.90
22974;DHT22;11653;50.848;4.584;2022-12-11T17:23:39;4.50;99.90